Nearby METAR Reports

 

KAVP - Avoca/Wilkes B., Pennsylvania, USA
Distance from station: SW 13mi, 22km
Updated: Mon, 19-Aug-2019 11:54 EDT
Few Clouds
Few Clouds
 Wind from SW
Wind: SW 9 mph , 15 km/h
Temperature: 81°F , 27°C
Heat Index: 85°F , 29°C
Dew Point: 70°F , 21°C
Humidity: 70%
Barometer: 30.04 inHg , 1017.3 hPa
Clouds: Few Clouds
Visibility: 10 miles , 16 km
Cloud details: Few Clouds 7500 ft
2019/08/19 15:54 KAVP 191554Z 22008KT 10SM FEW075 27/21 A3004 RMK AO2 SLP163 T02720206
KMPO - Mt. Pocono, Pennsylvania, USA
Distance from station: SSE 26mi, 43km
Updated: Mon, 19-Aug-2019 11:53 EDT
Clear
Clear
 Wind from WSW
Wind: WSW 10 mph , 17 km/h
Temperature: 81°F , 27°C
Heat Index: 83°F , 28°C
Dew Point: 66°F , 19°C
Humidity: 62%
Barometer: 30.08 inHg , 1018.6 hPa
Clouds: Clear
Visibility: 10 miles , 16 km
2019/08/19 15:53 KMPO 191553Z AUTO 25009KT 10SM CLR 27/19 A3008 RMK AO2 SLP172 T02720189
 
KMSV - Monticello, New York, USA
Distance from station: ENE 43mi, 69km
Updated: Mon, 19-Aug-2019 11:56 EDT
Clear
Clear
 Wind from NW
Wind: NW 7 mph , 11 km/h
Temperature: 81°F , 27°C
Heat Index: 85°F , 29°C
Dew Point: 70°F , 21°C
Humidity: 70%
Barometer: 30.06 inHg , 1017.9 hPa
Clouds: Clear
Visibility: 10 miles , 16 km
2019/08/19 15:56 KMSV 191556Z AUTO 31006KT 10SM CLR 27/21 A3006 RMK AO2 SLP170 T02670206
KFWN - Sussex, New Jersey, USA
Distance from station: ESE 52mi, 84km
Updated: Mon, 19-Aug-2019 11:53 EDT
Clear
Clear
 Wind from SW
Wind: SW 8 mph , 13 km/h
Temperature: 84°F , 29°C
Heat Index: 89°F , 32°C
Dew Point: 72°F , 22°C
Humidity: 66%
Barometer: 29.99 inHg , 1015.6 hPa
Clouds: Clear
Visibility: 10 miles , 16 km
2019/08/19 15:53 KFWN 191553Z AUTO 23007KT 210V280 10SM CLR 29/22 A2999 RMK AO2 SLP151 T02940217
 
K12N - Andover, New Jersey, USA
Distance from station: SE 54mi, 87km
Updated: Mon, 19-Aug-2019 11:54 EDT

 Wind from SW
Wind: SW 6 mph , 9 km/h
Temperature: 84°F , 29°C
Heat Index: 89°F , 32°C
Dew Point: 72°F , 22°C
Humidity: 66%
Barometer: 30.00 inHg , 1015.9 hPa
2019/08/19 15:54 K12N 191554Z AUTO 22005KT 29/22 A3000 RMK AO1 SLP150 T02940222
KBGM - Binghamton, New York, USA
Distance from station: NNW 55mi, 88km
Updated: Mon, 19-Aug-2019 11:53 EDT
Clear
Clear
 Wind from WSW
Wind: WSW 7 mph , 11 km/h
Temperature: 73°F , 23°C
Dew Point: 64°F , 18°C
Humidity: 74%
Barometer: 30.06 inHg , 1017.9 hPa
Clouds: Clear
Visibility: 10 miles , 16 km
2019/08/19 15:53 KBGM 191553Z 24006KT 10SM CLR 23/18 A3006 RMK AO2 SLP170 T02330183
 
KABE - Allentown, Pennsylvania, USA
Distance from station: S 58mi, 94km
Updated: Mon, 19-Aug-2019 11:51 EDT
Clear
Clear
 Wind from W
Wind: W 7 mph , 11 km/h
Temperature: 86°F , 30°C
Heat Index: 92°F , 33°C
Dew Point: 72°F , 22°C
Humidity: 62%
Barometer: 30.00 inHg , 1015.9 hPa
Clouds: Clear
Visibility: 10 miles , 16 km
2019/08/19 15:51 KABE 191551Z 28006KT 10SM CLR 30/22 A3000 RMK AO2 SLP155 T03000217
KXLL - Allentown Queen, Pennsylvania, USA
Distance from station: S 64mi, 103km
Updated: Mon, 19-Aug-2019 12:15 EDT
Clear
Clear
 Wind from W
Wind: W 8 mph , 13 km/h
Temperature: 86°F , 30°C
Heat Index: 89°F , 32°C
Dew Point: 68°F , 20°C
Humidity: 55%
Barometer: 30.02 inHg , 1016.6 hPa
Clouds: Clear
Visibility: 10 miles , 16 km
2019/08/19 16:15 KXLL 191615Z AUTO 26007KT 10SM CLR 30/20 A3002 RMK AO2
 
KMGJ - Montgomery, New York, USA
Distance from station: E 67mi, 108km
Updated: Mon, 19-Aug-2019 11:54 EDT
Clear
Clear
 Wind from SSW
Wind: SSW 7 mph , 11 km/h
Temperature: 82°F , 28°C
Heat Index: 86°F , 30°C
Dew Point: 72°F , 22°C
Humidity: 70%
Barometer: 29.97 inHg , 1014.9 hPa
Clouds: Clear
Visibility: 10 miles , 16 km
2019/08/19 15:54 KMGJ 191554Z AUTO 21006KT 10SM CLR 28/22 A2997 RMK AO2 SLP146 T02780222
KIPT - Williamsport, Pennsylvania, USA
Distance from station: WSW 72mi, 116km
Updated: Mon, 19-Aug-2019 11:54 EDT
Clear
Clear
 Wind from varies
Wind: varies 6 mph , 9 km/h
Temperature: 75°F , 24°C
Dew Point: 66°F , 19°C
Humidity: 74%
Barometer: 30.04 inHg , 1017.3 hPa
Clouds: Clear
Visibility: 10 miles , 16 km
2019/08/19 15:54 KIPT 191554Z VRB05KT 10SM CLR 24/19 A3004 RMK AO2 SLP167 T02440189
 
KUKT - Quakertown Arp, Pennsylvania, USA
Distance from station: S 74mi, 119km
Updated: Mon, 19-Aug-2019 12:20 EDT
Clear
Clear
 Wind from WSW
Wind: WSW 8 mph , 13 km/h, Gust: 15 mph , 24 km/h
Temperature: 86°F , 30°C
Heat Index: 93°F , 34°C
Dew Point: 73°F , 23°C
Humidity: 66%
Barometer: 30.02 inHg , 1016.6 hPa
Clouds: Clear
Visibility: 10 miles , 16 km
2019/08/19 16:20 KUKT 191620Z AUTO 24007G13KT 10SM CLR 30/23 A3002 RMK A01
KSMQ - Somerville, New Jersey, USA
Distance from station: SE 76mi, 123km
Updated: Mon, 19-Aug-2019 11:53 EDT
Clear
Clear
 Wind from calm
Wind: Calm
Temperature: 86°F , 30°C
Heat Index: 93°F , 34°C
Dew Point: 73°F , 23°C
Humidity: 66%
Barometer: 29.98 inHg , 1015.2 hPa
Clouds: Clear
Visibility: 9 miles , 14 km
2019/08/19 15:53 KSMQ 191553Z AUTO 00000KT 9SM CLR 30/23 A2998 RMK AO2 SLPNO T03000233
 
KSWF - Newburgh/Stewart, New York, USA
Distance from station: E 77mi, 123km
Updated: Mon, 19-Aug-2019 11:45 EDT
Clear
Clear
 Wind from W
Wind: W 9 mph , 15 km/h
Temperature: 82°F , 28°C
Heat Index: 87°F , 31°C
Dew Point: 73°F , 23°C
Humidity: 74%
Barometer: 29.99 inHg , 1015.6 hPa
Clouds: Clear
Visibility: 20 miles , 32 km
2019/08/19 15:45 KSWF 191545Z 28008KT 20SM SKC 28/23 A2999
KMMU - Morristown Muni, New Jersey, USA
Distance from station: SE 77mi, 124km
Updated: Mon, 19-Aug-2019 11:45 EDT
Partly cloudy
Partly cloudy
 Wind from SW
Wind: SW 10 mph , 17 km/h
Temperature: 86°F , 30°C
Heat Index: 95°F , 35°C
Dew Point: 75°F , 24°C
Humidity: 70%
Barometer: 29.98 inHg , 1015.2 hPa
Clouds: Partly cloudy
Visibility: 10 miles , 16 km
Cloud details: Partly cloudy 20000 ft
2019/08/19 15:45 KMMU 191545Z 23009KT 10SM SCT200 30/24 A2998
 
KCDW - Caldwell, New Jersey, USA
Distance from station: ESE 79mi, 127km
Updated: Mon, 19-Aug-2019 11:53 EDT
Clear
Clear
 Wind from S
Wind: S 6 mph , 9 km/h
Temperature: 88°F , 31°C
Heat Index: 96°F , 36°C
Dew Point: 73°F , 23°C
Humidity: 62%
Barometer: 29.98 inHg , 1015.2 hPa
Clouds: Clear
Visibility: 10 miles , 16 km
2019/08/19 15:53 KCDW 191553Z 19005KT 10SM CLR 31/23 A2998 RMK AO2 SLP155 T03110233
KRDG - Reading, Pennsylvania, USA
Distance from station: SSW 80mi, 130km
Updated: Mon, 19-Aug-2019 11:54 EDT
Partly cloudy
Partly cloudy
 Wind from W
Wind: W 5 mph , 7 km/h
Temperature: 84°F , 29°C
Heat Index: 92°F , 33°C
Dew Point: 75°F , 24°C
Humidity: 74%
Barometer: 30.00 inHg , 1015.9 hPa
Clouds: Partly cloudy
Visibility: 10 miles , 16 km
Cloud details: Partly cloudy 8500 ft
2019/08/19 15:54 KRDG 191554Z 27004KT 10SM SCT085 29/24 A3000 RMK AO2 SLP160 T02940239
 
KITH - Ithaca/Tompkins, New York, USA
Distance from station: NW 81mi, 131km
Updated: Mon, 19-Aug-2019 11:56 EDT
Mostly cloudy
Mostly cloudy
 Wind from WNW
Wind: WNW 8 mph , 13 km/h
Temperature: 77°F , 25°C
Dew Point: 68°F , 20°C
Humidity: 74%
Barometer: 30.05 inHg , 1017.6 hPa
Clouds: Mostly cloudy
Visibility: 10 miles , 16 km
Cloud details: Mostly cloudy 3100 ft
2019/08/19 15:56 KITH 191556Z 29007KT 10SM BKN031 25/20 A3005 RMK AO2 SLP169 T02500200
KSEG - Selinsgrove, Pennsylvania, USA
Distance from station: SW 82mi, 132km
Updated: Mon, 19-Aug-2019 11:53 EDT
Few Clouds
Few Clouds
 Wind from calm
Wind: Calm
Temperature: 81°F , 27°C
Heat Index: 85°F , 29°C
Dew Point: 70°F , 21°C
Humidity: 70%
Barometer: 30.04 inHg , 1017.3 hPa
Clouds: Few Clouds
Visibility: 10 miles , 16 km
Cloud details: Few Clouds 6500 ft
2019/08/19 15:53 KSEG 191553Z AUTO 00000KT 10SM FEW065 27/21 A3004 RMK AO2 SLP169 T02720211
 
KELM - Elmira, New York, USA
Distance from station: WNW 82mi, 133km
Updated: Mon, 19-Aug-2019 11:53 EDT
Partly cloudy
Partly cloudy
 Wind from SW
Wind: SW 7 mph , 11 km/h
Temperature: 79°F , 26°C
Dew Point: 68°F , 20°C
Humidity: 70%
Barometer: 30.03 inHg , 1016.9 hPa
Clouds: Partly cloudy
Visibility: 10 miles , 16 km
Cloud details: Partly cloudy 3400 ft
2019/08/19 15:53 KELM 191553Z 23006KT 10SM SCT034 26/20 A3003 RMK AO2 SLP161 T02610200
KDYL - Doylestown, Pennsylvania, USA
Distance from station: SSE 83mi, 134km
Updated: Mon, 19-Aug-2019 11:54 EDT
Clear
Clear
 Wind from SSW
Wind: SSW 6 mph , 9 km/h
Temperature: 86°F , 30°C
Heat Index: 92°F , 33°C
Dew Point: 72°F , 22°C
Humidity: 62%
Barometer: 30.00 inHg , 1015.9 hPa
Clouds: Clear
Visibility: 10 miles , 16 km
2019/08/19 15:54 KDYL 191554Z AUTO 20005KT 10SM CLR 30/22 A3000 RMK AO2 SLP152 T03000222